Time;durP1;ratioP1;P1;durP2;ratioP2;P2;SDS_P1;SDS_P2;PMS_P1;PMS_P2;Temp;Humidity;BMP_temperature;BMP_pressure;BME280_temperature;BME280_humidity;BME280_pressure;Samples;Min_cycle;Max_cycle;Signal;HPM_P1;HPM_P2
2023/08/30 00:01:22;;;;;;;13.98;11.07;;;;;;;21.19;69.88;96714.31;10320062;28;20048;-54
2023/08/30 00:06:21;;;;;;;13.05;10.90;;;;;;;21.32;69.42;96704.75;10325860;28;20092;-54
2023/08/30 00:11:20;;;;;;;15.07;10.73;;;;;;;21.35;69.16;96699.28;10320943;28;20017;-54
2023/08/30 00:16:19;;;;;;;16.95;10.90;;;;;;;21.24;69.09;96710.50;10315829;28;20112;-54
2023/08/30 00:21:18;;;;;;;17.42;11.35;;;;;;;21.29;68.72;96695.25;10315927;28;20519;-54
2023/08/30 00:26:17;;;;;;;14.45;10.50;;;;;;;21.17;68.27;96651.09;10330026;28;20048;-55
2023/08/30 00:31:16;;;;;;;14.80;10.00;;;;;;;21.34;67.50;96660.66;10315240;28;20049;-55
2023/08/30 00:36:17;;;;;;;15.38;11.32;;;;;;;21.00;68.19;96630.16;10314039;28;20022;-55
2023/08/30 00:41:16;;;;;;;16.95;11.77;;;;;;;21.14;69.30;96686.41;10317945;28;20121;-55
2023/08/30 00:46:15;;;;;;;17.30;11.23;;;;;;;21.09;69.76;96699.03;10314934;28;20092;-54
2023/08/30 00:51:14;;;;;;;13.52;10.63;;;;;;;20.99;69.15;96713.72;10312018;28;20084;-55
2023/08/30 00:56:14;;;;;;;13.15;9.73;;;;;;;20.93;69.09;96683.28;10319688;28;20065;-55
2023/08/30 01:01:15;;;;;;;13.88;9.90;;;;;;;21.11;68.48;96699.81;10317710;28;20116;-55
2023/08/30 01:06:14;;;;;;;15.05;10.25;;;;;;;21.14;68.17;96696.13;10317533;28;20057;-55
2023/08/30 01:11:19;;;;;;;13.65;9.43;;;;;;;21.18;68.65;96696.81;10316467;28;20041;-55
2023/08/30 01:16:21;;;;;;;14.77;9.82;;;;;;;21.24;68.03;96691.16;10317037;28;20068;-55
2023/08/30 01:22:09;;;;;;;12.23;10.10;;;;;;;21.26;67.95;96699.84;10316704;28;20105;-55
2023/08/30 01:27:10;;;;;;;12.90;9.38;;;;;;;20.85;68.32;96645.16;10318374;28;20068;-55
2023/08/30 01:32:09;;;;;;;13.60;10.05;;;;;;;20.94;68.52;96668.31;10326323;28;20542;-55
2023/08/30 01:37:09;;;;;;;14.90;10.18;;;;;;;21.12;68.92;96709.44;10328595;28;20060;-55
2023/08/30 01:42:09;;;;;;;15.07;10.40;;;;;;;21.15;68.83;96697.84;10328618;28;20072;-55
2023/08/30 01:47:08;;;;;;;15.10;10.55;;;;;;;21.17;69.20;96705.63;10324117;28;20057;-55
2023/08/30 01:52:08;;;;;;;16.38;10.07;;;;;;;21.06;69.51;96703.66;10305724;28;20091;-55
2023/08/30 01:57:07;;;;;;;14.80;10.50;;;;;;;21.10;69.61;96702.53;10322374;28;20057;-55
2023/08/30 02:02:06;;;;;;;15.48;11.65;;;;;;;20.90;70.44;96686.09;10310003;28;20172;-55
2023/08/30 02:07:19;;;;;;;14.95;11.38;;;;;;;20.96;70.88;96679.63;10316312;28;20026;-54
2023/08/30 02:12:20;;;;;;;16.50;12.15;;;;;;;20.88;71.38;96701.16;10318337;28;20072;-55
2023/08/30 02:17:20;;;;;;;15.75;11.35;;;;;;;20.66;71.19;96675.25;10305574;28;20508;-56
2023/08/30 02:22:19;;;;;;;19.10;12.70;;;;;;;20.84;71.67;96688.25;10322378;28;20117;-55
2023/08/30 02:27:18;;;;;;;14.38;11.75;;;;;;;20.88;71.71;96690.63;10324229;28;20065;-55
2023/08/30 02:32:20;;;;;;;14.15;11.52;;;;;;;20.60;71.41;96637.84;10324095;28;20032;-55
2023/08/30 02:37:19;;;;;;;15.40;11.05;;;;;;;20.95;71.44;96690.28;10319612;28;20060;-55
2023/08/30 02:42:18;;;;;;;14.93;11.40;;;;;;;20.22;71.90;96609.28;10319586;28;20121;-55
2023/08/30 02:47:17;;;;;;;15.48;11.30;;;;;;;20.84;72.37;96712.00;10322737;28;20068;-55
2023/08/30 02:52:17;;;;;;;12.90;10.77;;;;;;;20.63;73.28;96706.19;10317797;28;20114;-55
2023/08/30 02:57:17;;;;;;;14.25;10.85;;;;;;;20.22;75.68;96707.59;10319004;28;20149;-55
2023/08/30 03:02:17;;;;;;;14.55;11.27;;;;;;;19.93;77.71;96718.91;10318150;28;20028;-55
2023/08/30 03:07:15;;;;;;;17.55;11.50;;;;;;;19.97;77.18;96715.16;10317033;28;20065;-55
2023/08/30 03:12:14;;;;;;;16.23;12.18;;;;;;;20.00;77.37;96713.22;10320876;28;20029;-55
2023/08/30 03:17:13;;;;;;;16.15;12.10;;;;;;;20.13;77.69;96716.00;10315523;28;20041;-55
2023/08/30 03:22:12;;;;;;;15.65;12.85;;;;;;;20.07;77.68;96700.53;10321486;28;20030;-55
2023/08/30 03:27:11;;;;;;;15.70;12.70;;;;;;;20.16;77.24;96707.94;10317588;28;20036;-55
2023/08/30 03:32:13;;;;;;;14.85;12.43;;;;;;;20.20;76.89;96714.72;10320298;28;20983;-55
2023/08/30 03:37:16;;;;;;;15.48;12.93;;;;;;;19.84;76.51;96639.50;10296029;28;20069;-55
2023/08/30 03:42:14;;;;;;;16.70;12.48;;;;;;;20.23;76.65;96696.09;10317913;28;20128;-54
2023/08/30 03:47:13;;;;;;;15.95;12.50;;;;;;;20.17;76.72;96688.56;10312931;28;20032;-55
2023/08/30 03:52:12;;;;;;;15.15;12.25;;;;;;;20.02;76.80;96681.53;10316517;28;20049;-54
2023/08/30 03:57:11;;;;;;;16.42;12.52;;;;;;;20.07;76.99;96688.25;10303558;28;20064;-55
2023/08/30 04:02:10;;;;;;;19.52;13.93;;;;;;;20.22;76.71;96704.13;10313841;28;20017;-55
2023/08/30 04:07:09;;;;;;;17.95;13.10;;;;;;;20.08;77.26;96712.78;10291407;28;20101;-55
2023/08/30 04:12:08;;;;;;;17.23;13.85;;;;;;;19.85;77.77;96678.03;10312032;28;20025;-55
2023/08/30 04:17:07;;;;;;;17.85;13.50;;;;;;;20.09;77.05;96701.31;10311704;28;20049;-55
2023/08/30 04:22:06;;;;;;;19.13;13.68;;;;;;;20.04;77.36;96704.19;10314837;28;20028;-54
2023/08/30 04:27:05;;;;;;;20.52;13.25;;;;;;;20.15;77.34;96715.94;10316763;28;20112;-54
2023/08/30 04:32:04;;;;;;;19.98;13.45;;;;;;;20.07;77.84;96722.50;10310215;28;20029;-55
2023/08/30 04:37:03;;;;;;;20.55;14.35;;;;;;;20.05;77.96;96711.19;10314461;28;20049;-54
2023/08/30 04:42:03;;;;;;;22.23;14.10;;;;;;;20.15;77.60;96722.06;10319845;28;20128;-54
2023/08/30 04:47:02;;;;;;;17.50;13.50;;;;;;;20.20;77.87;96725.28;10359763;28;20123;-54
2023/08/30 04:52:01;;;;;;;18.02;13.60;;;;;;;20.17;78.32;96736.00;10361040;28;20068;-54
2023/08/30 04:57:00;;;;;;;36.08;14.57;;;;;;;20.22;77.85;96741.84;10343179;28;20049;-54
2023/08/30 05:01:59;;;;;;;61.05;19.33;;;;;;;19.98;77.63;96675.59;10356957;28;20037;-55
2023/08/30 05:06:58;;;;;;;54.55;17.40;;;;;;;20.55;77.24;96742.69;10358315;28;20021;-54
2023/08/30 05:11:58;;;;;;;40.78;15.77;;;;;;;20.55;77.44;96751.44;10357196;28;20704;-55
2023/08/30 05:16:57;;;;;;;30.80;14.32;;;;;;;20.76;77.07;96752.00;10363091;28;20511;-55
2023/08/30 05:21:56;;;;;;;16.35;13.35;;;;;;;20.88;76.67;96747.78;10361176;28;20566;-54
2023/08/30 05:26:55;;;;;;;40.10;14.52;;;;;;;21.16;75.22;96725.91;10359955;28;20069;-55
2023/08/30 05:31:54;;;;;;;37.28;14.18;;;;;;;21.59;74.42;96727.75;10360939;28;20060;-55
2023/08/30 05:36:53;;;;;;;22.23;12.10;;;;;;;22.29;71.78;96747.09;10359291;28;20029;-55
2023/08/30 05:41:52;;;;;;;17.45;12.50;;;;;;;22.63;68.90;96737.00;10361885;28;20112;-55
2023/08/30 05:46:51;;;;;;;16.77;11.75;;;;;;;22.87;68.18;96741.63;10360822;28;20120;-55
2023/08/30 05:51:50;;;;;;;19.08;11.73;;;;;;;23.20;67.35;96757.88;10356335;28;20091;-55
2023/08/30 05:56:49;;;;;;;24.27;12.65;;;;;;;23.37;64.90;96746.16;10358883;28;20068;-55
2023/08/30 06:01:48;;;;;;;19.83;12.45;;;;;;;23.58;63.75;96749.16;10360210;28;20041;-55
2023/08/30 06:06:47;;;;;;;22.02;13.23;;;;;;;23.68;62.99;96743.19;10342239;28;20040;-55
2023/08/30 06:11:46;;;;;;;20.95;12.90;;;;;;;23.64;62.94;96746.06;10358367;28;20027;-55
2023/08/30 06:16:45;;;;;;;17.67;12.80;;;;;;;23.66;62.01;96727.41;10368484;28;20637;-55
2023/08/30 06:21:44;;;;;;;18.92;12.85;;;;;;;23.42;62.81;96712.25;10352270;28;20064;-54
2023/08/30 06:26:43;;;;;;;18.15;12.80;;;;;;;23.22;62.03;96700.38;10366215;28;20056;-54
2023/08/30 06:31:42;;;;;;;18.48;11.80;;;;;;;23.29;62.39;96740.53;10366116;28;20064;-54
2023/08/30 06:36:41;;;;;;;13.25;10.73;;;;;;;23.30;61.65;96736.91;10365805;28;20071;-54
2023/08/30 06:41:40;;;;;;;14.27;10.48;;;;;;;23.28;61.64;96743.28;10359336;28;20037;-54
2023/08/30 06:46:39;;;;;;;17.45;10.98;;;;;;;23.15;61.91;96748.56;10364288;28;20025;-54
2023/08/30 06:51:38;;;;;;;15.73;11.52;;;;;;;23.23;62.13;96747.09;10368053;28;20119;-54
2023/08/30 06:56:37;;;;;;;14.93;11.23;;;;;;;23.33;61.60;96741.19;10361684;28;20032;-54
2023/08/30 07:01:36;;;;;;;17.10;11.93;;;;;;;23.34;61.09;96737.56;10363461;28;20037;-54
2023/08/30 07:06:35;;;;;;;16.20;11.02;;;;;;;23.30;61.56;96710.44;10365054;28;20111;-54
2023/08/30 07:11:34;;;;;;;97.57;19.25;;;;;;;23.60;60.72;96709.31;10366757;28;20031;-54
2023/08/30 07:16:33;;;;;;;13.20;10.35;;;;;;;23.50;59.19;96698.50;10364540;28;20735;-54
2023/08/30 07:21:33;;;;;;;15.07;10.85;;;;;;;23.88;59.47;96705.53;10363513;28;20025;-54
2023/08/30 07:26:31;;;;;;;15.15;10.52;;;;;;;24.26;57.84;96726.69;10345552;28;20140;-54
2023/08/30 07:31:34;;;;;;;15.00;10.98;;;;;;;24.47;56.92;96718.97;10361334;28;20030;-54
2023/08/30 07:36:33;;;;;;;15.05;10.63;;;;;;;24.59;55.89;96713.69;10362469;28;20060;-54
2023/08/30 07:41:36;;;;;;;11.68;9.95;;;;;;;24.80;54.20;96714.75;10362789;28;20129;-54
2023/08/30 07:46:35;;;;;;;18.70;10.88;;;;;;;24.93;53.47;96705.91;10363289;28;20071;-55
2023/08/30 07:51:34;;;;;;;13.90;9.93;;;;;;;25.01;53.58;96706.13;10351309;28;20043;-54
2023/08/30 07:56:33;;;;;;;15.65;9.50;;;;;;;25.08;52.75;96676.38;10358112;28;20029;-54
2023/08/30 08:01:32;;;;;;;16.33;10.38;;;;;;;25.36;51.15;96687.50;10364039;28;20047;-54
2023/08/30 08:06:31;;;;;;;14.07;8.77;;;;;;;25.68;49.73;96695.63;10362926;28;20025;-54
2023/08/30 08:11:30;;;;;;;11.68;9.57;;;;;;;25.69;48.38;96701.78;10362576;28;20044;-54
2023/08/30 08:16:29;;;;;;;12.40;8.65;;;;;;;25.79;47.71;96680.66;10352542;28;20037;-54
2023/08/30 08:21:28;;;;;;;11.27;9.23;;;;;;;25.90;47.54;96688.59;10345755;28;20073;-54
2023/08/30 08:26:27;;;;;;;11.85;8.68;;;;;;;26.19;47.24;96698.72;10340556;28;20064;-54
2023/08/30 08:31:27;;;;;;;13.20;8.63;;;;;;;26.23;46.85;96710.81;10357922;28;20136;-54
2023/08/30 08:36:26;;;;;;;13.25;8.95;;;;;;;26.46;46.60;96690.31;10342269;28;20848;-54
2023/08/30 08:41:34;;;;;;;11.32;8.85;;;;;;;26.30;45.87;96672.09;10346132;28;20033;-54
2023/08/30 08:46:36;;;;;;;14.02;9.10;;;;;;;26.51;45.40;96673.03;10352691;28;20160;-54
2023/08/30 08:51:36;;;;;;;13.48;8.73;;;;;;;27.00;45.67;96689.38;10368732;28;20136;-55
2023/08/30 08:56:37;;;;;;;12.63;9.90;;;;;;;26.82;44.55;96630.53;10397646;28;20487;-55
2023/08/30 09:01:39;;;;;;;11.20;9.63;;;;;;;27.31;44.14;96663.63;10388507;28;20476;-55
2023/08/30 09:06:43;;;;;;;14.57;9.85;;;;;;;27.60;43.72;96645.13;10374495;28;20129;-55
2023/08/30 09:11:42;;;;;;;11.48;9.40;;;;;;;28.19;42.79;96680.81;10380572;28;20141;-55
2023/08/30 09:16:41;;;;;;;13.68;9.45;;;;;;;28.41;41.90;96670.91;10385317;28;20029;-55
2023/08/30 09:21:54;;;;;;;14.15;9.52;;;;;;;28.76;41.42;96665.03;10350548;28;20272;-55
2023/08/30 09:26:54;;;;;;;13.23;9.38;;;;;;;28.93;40.70;96651.94;10365852;28;20591;-55
2023/08/30 09:31:53;;;;;;;11.73;9.57;;;;;;;28.95;40.20;96631.28;10359003;28;20216;-56
2023/08/30 09:36:53;;;;;;;11.43;9.55;;;;;;;28.83;39.97;96617.25;10382439;28;20147;-55
2023/08/30 09:41:54;;;;;;;11.02;8.85;;;;;;;29.24;39.88;96660.59;10388525;28;20112;-55
2023/08/30 09:46:54;;;;;;;14.07;9.70;;;;;;;29.31;39.78;96659.03;10385574;28;20056;-55
2023/08/30 09:51:54;;;;;;;13.00;8.95;;;;;;;29.25;39.98;96639.06;10392490;28;20156;-55
2023/08/30 09:56:55;;;;;;;14.70;9.95;;;;;;;29.78;40.27;96664.34;10383120;28;20119;-55
2023/08/30 10:01:54;;;;;;;13.80;9.43;;;;;;;30.17;38.87;96661.50;10392459;28;20560;-55
2023/08/30 10:06:57;;;;;;;14.82;9.80;;;;;;;30.51;38.89;96652.81;10384480;28;20135;-55
2023/08/30 10:11:58;;;;;;;13.05;9.38;;;;;;;30.87;37.26;96648.28;10398104;28;20128;-55
2023/08/30 10:17:02;;;;;;;12.35;9.20;;;;;;;31.28;37.63;96650.44;10385320;28;20127;-55
2023/08/30 10:22:15;;;;;;;11.23;8.43;;;;;;;31.47;36.56;96609.97;10352200;28;20147;-55
2023/08/30 10:27:16;;;;;;;10.32;8.48;;;;;;;31.04;35.66;96649.28;10391564;28;20064;-55
2023/08/30 10:32:20;;;;;;;13.82;8.73;;;;;;;30.38;36.82;96633.59;10330955;28;20191;-55
2023/08/30 10:37:24;;;;;;;10.55;9.07;;;;;;;30.24;36.99;96625.09;10365422;28;21189;-55
2023/08/30 10:42:23;;;;;;;13.43;8.90;;;;;;;30.48;36.82;96631.72;10373609;28;20175;-55
2023/08/30 10:47:37;;;;;;;13.88;9.85;;;;;;;30.91;36.40;96632.72;10391048;28;20064;-55
2023/08/30 10:52:36;;;;;;;9.32;7.75;;;;;;;30.93;35.41;96620.00;10366826;28;20124;-54
2023/08/30 10:57:36;;;;;;;10.90;7.68;;;;;;;31.21;35.33;96635.97;10373789;28;20123;-54
2023/08/30 11:02:37;;;;;;;12.65;7.72;;;;;;;31.37;34.42;96623.50;10364518;28;20556;-54
2023/08/30 11:07:36;;;;;;;10.73;8.20;;;;;;;31.53;34.84;96630.00;10351642;28;20057;-54
2023/08/30 11:12:35;;;;;;;11.65;8.80;;;;;;;31.78;35.00;96614.84;10374530;28;20468;-54
2023/08/30 11:17:34;;;;;;;11.95;8.45;;;;;;;31.88;33.58;96615.53;10387733;28;20127;-54
2023/08/30 11:22:42;;;;;;;11.93;8.43;;;;;;;31.88;34.24;96577.16;10367751;28;20136;-54
2023/08/30 11:27:41;;;;;;;;;;;;;;;31.90;33.02;96612.72;10366475;28;20143;-54
2023/08/30 11:32:44;;;;;;;10.45;7.85;;;;;;;31.92;34.22;96583.84;10366259;28;19913;-54
2023/08/30 11:37:43;;;;;;;10.68;7.72;;;;;;;31.63;33.02;96611.09;10364895;28;20126;-55
2023/08/30 11:42:43;;;;;;;11.30;8.00;;;;;;;31.05;33.75;96602.72;10367294;28;20068;-54
2023/08/30 11:47:42;;;;;;;12.60;8.45;;;;;;;30.86;34.31;96593.00;10350637;28;20068;-54
2023/08/30 11:52:42;;;;;;;13.30;8.00;;;;;;;30.38;34.62;96575.56;10374672;28;20156;-54
2023/08/30 11:57:44;;;;;;;11.30;7.90;;;;;;;30.87;34.57;96572.44;10369485;28;20119;-54
2023/08/30 12:02:44;;;;;;;10.77;7.97;;;;;;;31.09;33.08;96588.00;10380795;28;20563;-55
2023/08/30 12:07:43;;;;;;;9.38;7.47;;;;;;;30.99;33.14;96579.25;10367865;28;20056;-55
2023/08/30 12:12:45;;;;;;;9.98;7.28;;;;;;;31.17;33.11;96585.38;10363889;28;20083;-56
2023/08/30 12:17:44;;;;;;;11.75;7.70;;;;;;;31.25;33.04;96587.25;10369122;28;20056;-55
2023/08/30 12:22:43;;;;;;;14.18;7.20;;;;;;;31.27;33.56;96584.44;10361647;28;20024;-54
2023/08/30 12:27:42;;;;;;;10.90;7.47;;;;;;;31.15;32.69;96594.59;10367147;28;20719;-54
2023/08/30 12:32:43;;;;;;;9.43;7.43;;;;;;;31.10;32.23;96562.03;10380577;28;20506;-54
2023/08/30 12:37:42;;;;;;;10.38;6.68;;;;;;;31.16;33.33;96569.44;10370882;28;20147;-54
2023/08/30 12:42:41;;;;;;;9.73;6.93;;;;;;;30.80;32.82;96517.81;10371993;28;20524;-54
2023/08/30 12:47:40;;;;;;;10.00;6.95;;;;;;;30.79;32.82;96548.28;10371910;28;20850;-55
2023/08/30 12:52:39;;;;;;;9.35;6.53;;;;;;;30.26;32.70;96547.34;10366653;28;20056;-54
2023/08/30 12:57:38;;;;;;;10.80;6.85;;;;;;;29.95;32.68;96558.41;10371602;28;20113;-54
2023/08/30 13:02:37;;;;;;;9.07;6.65;;;;;;;30.14;32.72;96511.97;10366175;28;20129;-59
2023/08/30 13:07:37;;;;;;;8.90;6.25;;;;;;;30.90;32.52;96551.53;10354912;28;20032;-57
2023/08/30 13:12:36;;;;;;;10.88;6.95;;;;;;;31.46;31.41;96548.50;10370800;28;20443;-56
2023/08/30 13:17:35;;;;;;;9.75;6.72;;;;;;;31.61;29.85;96501.28;10374098;28;20722;-56
2023/08/30 13:22:34;;;;;;;14.30;6.78;;;;;;;32.03;29.36;96540.59;10364407;28;20198;-56
2023/08/30 13:27:33;;;;;;;9.65;6.22;;;;;;;32.23;28.58;96525.06;10379250;28;20032;-56
2023/08/30 13:32:33;;;;;;;19.60;7.22;;;;;;;32.57;28.52;96532.94;10388136;28;20025;-55
2023/08/30 13:37:32;;;;;;;80.95;9.65;;;;;;;33.10;27.83;96530.72;10351418;28;20134;-56
2023/08/30 13:42:35;;;;;;;21.80;6.82;;;;;;;33.43;26.94;96509.06;10384908;28;20036;-56
2023/08/30 13:47:34;;;;;;;10.88;6.82;;;;;;;33.64;26.39;96530.84;10386986;28;20061;-55
2023/08/30 13:52:33;;;;;;;10.95;7.13;;;;;;;33.08;25.06;96496.91;10361320;28;20131;-55
2023/08/30 13:57:32;;;;;;;9.45;6.43;;;;;;;32.82;25.62;96524.88;10372752;28;20048;-56
2023/08/30 14:02:32;;;;;;;9.25;6.47;;;;;;;32.07;25.65;96511.63;10376329;28;20136;-55
2023/08/30 14:07:31;;;;;;;9.40;6.50;;;;;;;31.89;25.86;96530.53;10374225;28;20472;-56
2023/08/30 14:12:30;;;;;;;10.52;6.63;;;;;;;31.75;26.13;96530.16;10369910;28;20476;-55
2023/08/30 14:17:29;;;;;;;10.77;6.38;;;;;;;31.89;26.26;96523.31;10386010;28;20581;-56
2023/08/30 14:22:28;;;;;;;11.07;6.40;;;;;;;31.98;27.22;96474.03;10379363;28;20025;-56
2023/08/30 14:27:27;;;;;;;13.25;6.85;;;;;;;32.67;26.34;96521.19;10347466;28;20496;-56
2023/08/30 14:32:26;;;;;;;11.75;7.18;;;;;;;32.70;25.78;96521.69;10376015;28;20016;-56
2023/08/30 14:37:25;;;;;;;18.58;7.18;;;;;;;32.85;26.01;96528.03;10369120;28;20036;-56
2023/08/30 14:42:23;;;;;;;10.68;7.00;;;;;;;32.95;25.70;96532.38;10360831;28;20051;-56
2023/08/30 14:47:23;;;;;;;9.05;5.88;;;;;;;33.14;25.41;96532.03;10399796;28;20470;-56
2023/08/30 14:52:22;;;;;;;9.82;6.35;;;;;;;33.47;25.66;96537.28;10398331;28;20084;-56
2023/08/30 14:57:21;;;;;;;10.65;6.50;;;;;;;33.38;24.81;96543.72;10400693;28;20044;-56
2023/08/30 15:02:20;;;;;;;11.73;6.35;;;;;;;33.39;25.04;96540.00;10382707;28;20125;-56
2023/08/30 15:07:19;;;;;;;8.52;5.40;;;;;;;33.21;23.75;96542.94;10389843;28;20046;-56
2023/08/30 15:12:18;;;;;;;8.85;5.47;;;;;;;33.15;22.42;96525.66;10362215;28;20037;-56
2023/08/30 15:17:17;;;;;;;10.18;5.53;;;;;;;32.87;22.13;96522.50;10399709;28;20039;-56
2023/08/30 15:22:16;;;;;;;7.30;4.90;;;;;;;32.76;22.50;96537.16;10364431;28;20558;-56
2023/08/30 15:27:14;;;;;;;12.35;5.25;;;;;;;32.43;22.53;96523.72;10389385;28;20119;-56
2023/08/30 15:32:14;;;;;;;14.82;7.78;;;;;;;31.88;29.57;96556.53;10399373;28;20024;-56
2023/08/30 15:37:13;;;;;;;10.95;7.35;;;;;;;31.08;32.76;96564.91;10398640;28;20063;-56
2023/08/30 15:42:12;;;;;;;11.65;7.25;;;;;;;30.63;34.29;96565.91;10398035;28;20119;-57
2023/08/30 15:47:11;;;;;;;12.07;7.40;;;;;;;30.12;35.01;96568.28;10377407;28;20051;-56
2023/08/30 15:52:10;;;;;;;11.07;7.47;;;;;;;29.90;36.33;96587.44;10375151;28;20163;-56
2023/08/30 15:57:08;;;;;;;11.45;7.93;;;;;;;29.57;36.92;96586.22;10399871;28;20052;-56
2023/08/30 16:02:07;;;;;;;11.10;7.88;;;;;;;29.35;37.72;96590.13;10370789;28;20139;-56
2023/08/30 16:07:07;;;;;;;11.35;7.45;;;;;;;29.31;37.86;96604.78;10402355;28;20112;-56
2023/08/30 16:12:06;;;;;;;10.43;7.30;;;;;;;29.15;38.06;96613.34;10398611;28;20112;-56
2023/08/30 16:17:05;;;;;;;17.08;7.63;;;;;;;28.81;38.15;96582.66;10386028;28;20075;-56
2023/08/30 16:22:05;;;;;;;10.80;7.45;;;;;;;28.95;38.58;96628.63;10397001;28;20103;-56
2023/08/30 16:27:04;;;;;;;10.65;7.50;;;;;;;27.81;38.44;96462.94;10384565;28;20508;-56
2023/08/30 16:32:03;;;;;;;55.72;12.45;;;;;;;28.78;38.39;96630.16;10361810;28;20452;-56
2023/08/30 16:37:02;;;;;;;15.60;8.82;;;;;;;28.78;38.47;96655.06;10388824;28;20112;-56
2023/08/30 16:42:01;;;;;;;17.00;7.88;;;;;;;28.52;39.35;96636.06;10398030;28;21194;-56
2023/08/30 16:47:00;;;;;;;14.38;7.97;;;;;;;28.59;39.39;96666.53;10398059;28;20328;-56
2023/08/30 16:51:59;;;;;;;12.55;8.52;;;;;;;28.45;39.67;96672.28;10401739;28;20121;-56
2023/08/30 16:56:59;;;;;;;11.30;7.90;;;;;;;28.32;40.08;96679.75;10346777;28;20059;-56
2023/08/30 17:01:58;;;;;;;12.07;8.05;;;;;;;27.95;40.70;96653.66;10398866;28;20507;-56
2023/08/30 17:06:59;;;;;;;14.15;7.80;;;;;;;27.70;41.15;96653.16;10401609;28;20786;-56
2023/08/30 17:11:59;;;;;;;15.38;8.68;;;;;;;27.65;42.21;96689.19;10396168;28;20048;-56
2023/08/30 17:16:58;;;;;;;15.07;9.02;;;;;;;27.39;43.24;96701.09;10365455;28;20060;-56
2023/08/30 17:21:57;;;;;;;13.90;9.70;;;;;;;27.10;43.80;96722.25;10377187;28;20131;-56
2023/08/30 17:26:57;;;;;;;15.18;10.35;;;;;;;26.74;44.79;96721.66;10375078;28;20126;-55
2023/08/30 17:31:56;;;;;;;11.43;8.05;;;;;;;26.27;46.52;96752.16;10397101;28;20539;-56
2023/08/30 17:36:57;;;;;;;13.00;8.50;;;;;;;25.97;47.96;96758.91;10378444;28;20531;-56
2023/08/30 17:41:57;;;;;;;12.80;9.45;;;;;;;25.60;49.10;96752.97;10374985;28;20111;-56
2023/08/30 17:46:56;;;;;;;13.48;9.15;;;;;;;24.49;51.79;96633.97;10392767;28;20115;-56
2023/08/30 17:51:55;;;;;;;15.07;9.57;;;;;;;24.85;51.99;96722.38;10387507;28;20149;-55
2023/08/30 17:56:54;;;;;;;13.52;9.98;;;;;;;25.15;52.50;96792.69;10390096;28;20035;-56
2023/08/30 18:01:53;;;;;;;13.40;9.70;;;;;;;24.68;53.08;96758.09;10397081;28;20029;-53
2023/08/30 18:06:52;;;;;;;12.07;10.00;;;;;;;25.01;53.16;96812.31;10396914;28;20518;-56
2023/08/30 18:11:51;;;;;;;15.32;10.65;;;;;;;24.97;53.17;96813.53;10404885;28;20029;-53
2023/08/30 18:16:50;;;;;;;19.90;13.05;;;;;;;24.97;52.97;96824.16;10401011;28;20028;-56
2023/08/30 18:21:49;;;;;;;16.88;10.15;;;;;;;24.80;52.81;96818.25;10402854;28;20537;-54
2023/08/30 18:26:49;;;;;;;14.75;11.25;;;;;;;25.02;52.74;96840.56;10405557;28;20320;-55
2023/08/30 18:31:49;;;;;;;16.65;10.48;;;;;;;24.69;52.94;96802.25;10369616;28;20121;-54
2023/08/30 18:36:48;;;;;;;13.55;9.93;;;;;;;24.87;53.46;96856.66;10364741;28;20116;-54
2023/08/30 18:41:47;;;;;;;14.60;10.32;;;;;;;24.85;53.55;96853.25;10369175;28;20107;-55
2023/08/30 18:46:46;;;;;;;14.27;10.02;;;;;;;24.69;54.00;96845.53;10403757;28;20039;-55
2023/08/30 18:57:59;;;;;;;14.10;10.52;;;;;;;24.38;54.54;96851.34;10362532;28;20128;-55
2023/08/30 19:02:58;;;;;;;15.07;10.18;;;;;;;24.42;54.73;96877.53;10379534;28;20120;-55
2023/08/30 19:07:57;;;;;;;15.73;9.98;;;;;;;24.31;55.08;96888.09;10396991;28;20029;-56
2023/08/30 19:12:56;;;;;;;14.13;10.07;;;;;;;24.24;55.30;96895.63;10383348;28;20498;-55
2023/08/30 19:17:55;;;;;;;16.17;10.15;;;;;;;24.18;55.81;96906.63;10387204;28;20533;-56
2023/08/30 19:22:54;;;;;;;16.00;10.65;;;;;;;24.08;56.12;96910.00;10398165;28;20461;-55
2023/08/30 19:27:53;;;;;;;14.82;10.32;;;;;;;24.01;56.51;96923.69;10370922;28;20051;-60
2023/08/30 19:32:52;;;;;;;16.95;10.75;;;;;;;23.97;56.60;96929.28;10366560;28;20400;-54
2023/08/30 19:37:51;;;;;;;15.50;10.85;;;;;;;23.90;57.25;96928.84;10392284;28;20064;-55
2023/08/30 19:42:52;;;;;;;12.40;10.60;;;;;;;23.81;57.76;96932.13;10377451;28;20199;-54
2023/08/30 19:47:51;;;;;;;13.07;10.35;;;;;;;23.47;58.26;96901.75;10401455;28;20124;-54
2023/08/30 19:52:50;;;;;;;14.95;10.50;;;;;;;23.57;58.54;96938.13;10385326;28;20035;-55
2023/08/30 19:57:49;;;;;;;14.73;9.95;;;;;;;23.28;58.86;96912.69;10350957;28;20056;-54
2023/08/30 20:02:47;;;;;;;14.00;10.18;;;;;;;23.29;58.44;96931.13;10399488;28;20040;-55
2023/08/30 20:07:47;;;;;;;13.45;10.77;;;;;;;23.30;59.10;96947.84;10384370;28;20070;-56
2023/08/30 20:12:46;;;;;;;16.30;10.93;;;;;;;23.01;58.90;96905.59;10380210;28;20123;-55
2023/08/30 20:17:45;;;;;;;14.60;11.18;;;;;;;23.21;59.42;96958.09;10356089;28;20068;-54
2023/08/30 20:22:44;;;;;;;14.55;11.02;;;;;;;23.00;60.86;96948.91;10374905;28;20123;-54
2023/08/30 20:27:44;;;;;;;13.85;10.55;;;;;;;22.90;61.75;96964.50;10389877;28;20170;-55
2023/08/30 20:32:42;;;;;;;17.45;11.60;;;;;;;22.69;62.35;96945.50;10381703;28;20120;-55
2023/08/30 20:37:41;;;;;;;14.40;10.30;;;;;;;22.37;65.74;96968.66;10382730;28;20033;-60
2023/08/30 20:42:41;;;;;;;15.90;11.43;;;;;;;22.02;67.03;96971.66;10359002;28;20345;-58
2023/08/30 20:47:40;;;;;;;13.95;11.10;;;;;;;22.09;66.24;96977.41;10377283;28;20500;-55
2023/08/30 20:52:39;;;;;;;13.00;10.50;;;;;;;21.97;66.46;96993.03;10375181;28;20052;-53
2023/08/30 20:57:38;;;;;;;12.88;9.43;;;;;;;22.11;65.10;96983.47;10373135;28;20057;-53
2023/08/30 21:02:37;;;;;;;14.20;9.93;;;;;;;22.13;64.79;96986.84;10358097;28;20028;-55
2023/08/30 21:07:36;;;;;;;15.57;9.82;;;;;;;22.18;64.06;96976.88;10358096;28;20052;-55
2023/08/30 21:12:35;;;;;;;13.43;10.40;;;;;;;22.27;64.07;96996.59;10359083;28;20067;-53
2023/08/30 21:17:34;;;;;;;15.00;10.30;;;;;;;22.28;63.70;97006.22;10359039;28;20122;-55
2023/08/30 21:22:33;;;;;;;14.15;9.77;;;;;;;22.30;63.66;97005.19;10358168;28;20513;-53
2023/08/30 21:27:32;;;;;;;14.00;10.80;;;;;;;22.35;63.98;96997.00;10359298;28;20416;-54
2023/08/30 21:32:31;;;;;;;14.93;10.50;;;;;;;22.31;64.13;96993.66;10357216;28;20037;-55
2023/08/30 21:37:30;;;;;;;14.88;11.70;;;;;;;22.27;64.67;96999.22;10359132;28;20025;-54
2023/08/30 21:42:29;;;;;;;12.82;11.05;;;;;;;22.14;65.56;96991.19;10357532;28;20872;-54
2023/08/30 21:47:28;;;;;;;17.73;12.10;;;;;;;21.71;65.65;96952.31;10365292;28;20136;-54
2023/08/30 21:52:28;;;;;;;14.05;11.82;;;;;;;21.89;65.86;97000.53;10366617;28;20389;-55
2023/08/30 21:57:27;;;;;;;16.17;11.40;;;;;;;22.03;65.87;97022.69;10368471;28;20077;-55
2023/08/30 22:02:26;;;;;;;13.18;10.48;;;;;;;22.04;66.13;97000.59;10373940;28;20029;-54
2023/08/30 22:07:25;;;;;;;14.82;11.35;;;;;;;22.03;66.56;97002.41;10365034;28;20040;-54
2023/08/30 22:12:26;;;;;;;16.92;12.65;;;;;;;21.99;66.80;96984.19;10377058;28;20047;-54
2023/08/30 22:17:26;;;;;;;17.08;12.23;;;;;;;21.93;67.83;96990.66;10367033;28;20116;-54
2023/08/30 22:22:25;;;;;;;19.38;12.50;;;;;;;21.80;68.06;96976.47;10363243;28;20124;-55
2023/08/30 22:27:24;;;;;;;17.35;11.88;;;;;;;21.73;68.68;97003.25;10346495;28;20215;-55
2023/08/30 22:32:23;;;;;;;14.50;12.02;;;;;;;21.65;69.01;97008.09;10376525;28;20024;-55
2023/08/30 22:37:22;;;;;;;15.43;11.60;;;;;;;21.54;69.17;96997.31;10376320;28;20051;-54
2023/08/30 22:42:21;;;;;;;18.88;13.32;;;;;;;21.13;69.76;96932.72;10373567;28;20674;-55
2023/08/30 22:47:21;;;;;;;18.23;12.10;;;;;;;21.47;69.58;96998.59;10387830;28;20257;-54
2023/08/30 22:52:23;;;;;;;17.05;13.57;;;;;;;21.35;69.89;96981.66;10379538;28;20124;-54
2023/08/30 22:57:23;;;;;;;17.30;12.68;;;;;;;21.42;69.76;96995.38;10366338;28;20548;-55